sensor_id;sensor_type;location;lat;lon;timestamp;temperature;humidity
38788;DHT22;24536;45.488;12.238;2023-04-24T00:01:28;18.20;89.00
38788;DHT22;24536;45.488;12.238;2023-04-24T00:03:55;18.20;89.00
38788;DHT22;24536;45.488;12.238;2023-04-24T00:06:25;18.20;88.90
38788;DHT22;24536;45.488;12.238;2023-04-24T00:09:02;18.20;88.90
38788;DHT22;24536;45.488;12.238;2023-04-24T00:11:29;18.20;88.80
38788;DHT22;24536;45.488;12.238;2023-04-24T00:13:55;18.20;88.80
38788;DHT22;24536;45.488;12.238;2023-04-24T00:16:21;18.20;88.80
38788;DHT22;24536;45.488;12.238;2023-04-24T00:18:46;18.20;88.90
38788;DHT22;24536;45.488;12.238;2023-04-24T00:21:13;18.20;88.90
38788;DHT22;24536;45.488;12.238;2023-04-24T00:23:40;18.20;88.80
38788;DHT22;24536;45.488;12.238;2023-04-24T00:26:06;18.20;88.90
38788;DHT22;24536;45.488;12.238;2023-04-24T00:28:31;18.20;88.90
38788;DHT22;24536;45.488;12.238;2023-04-24T00:30:57;18.10;89.00
38788;DHT22;24536;45.488;12.238;2023-04-24T00:33:22;18.20;89.10
38788;DHT22;24536;45.488;12.238;2023-04-24T00:35:48;18.20;89.10
38788;DHT22;24536;45.488;12.238;2023-04-24T00:38:14;18.20;89.10
38788;DHT22;24536;45.488;12.238;2023-04-24T00:40:40;18.20;88.90
38788;DHT22;24536;45.488;12.238;2023-04-24T00:43:05;18.20;88.70
38788;DHT22;24536;45.488;12.238;2023-04-24T00:45:31;18.10;88.50
38788;DHT22;24536;45.488;12.238;2023-04-24T00:47:57;18.20;88.40
38788;DHT22;24536;45.488;12.238;2023-04-24T00:50:24;18.10;88.10
38788;DHT22;24536;45.488;12.238;2023-04-24T00:52:49;18.10;88.00
38788;DHT22;24536;45.488;12.238;2023-04-24T00:55:16;18.10;87.90
38788;DHT22;24536;45.488;12.238;2023-04-24T00:57:42;18.00;87.80
38788;DHT22;24536;45.488;12.238;2023-04-24T01:00:08;18.10;87.80
38788;DHT22;24536;45.488;12.238;2023-04-24T01:02:41;18.00;87.70
38788;DHT22;24536;45.488;12.238;2023-04-24T01:05:14;17.90;87.70
38788;DHT22;24536;45.488;12.238;2023-04-24T01:07:41;18.00;87.80
38788;DHT22;24536;45.488;12.238;2023-04-24T01:10:09;17.90;87.90
38788;DHT22;24536;45.488;12.238;2023-04-24T01:12:35;17.90;87.90
38788;DHT22;24536;45.488;12.238;2023-04-24T01:15:01;17.90;88.00
38788;DHT22;24536;45.488;12.238;2023-04-24T01:17:26;17.80;87.90
38788;DHT22;24536;45.488;12.238;2023-04-24T01:19:52;17.80;87.90
38788;DHT22;24536;45.488;12.238;2023-04-24T01:22:22;17.80;88.10
38788;DHT22;24536;45.488;12.238;2023-04-24T01:24:48;17.80;88.20
38788;DHT22;24536;45.488;12.238;2023-04-24T01:27:14;17.80;88.20
38788;DHT22;24536;45.488;12.238;2023-04-24T01:29:40;17.80;88.20
38788;DHT22;24536;45.488;12.238;2023-04-24T01:32:06;17.80;88.10
38788;DHT22;24536;45.488;12.238;2023-04-24T01:34:32;17.80;88.20
38788;DHT22;24536;45.488;12.238;2023-04-24T01:36:58;17.80;88.10
38788;DHT22;24536;45.488;12.238;2023-04-24T01:39:24;17.80;88.10
38788;DHT22;24536;45.488;12.238;2023-04-24T01:41:51;17.80;88.20
38788;DHT22;24536;45.488;12.238;2023-04-24T01:44:18;17.80;88.20
38788;DHT22;24536;45.488;12.238;2023-04-24T01:46:44;17.70;88.20
38788;DHT22;24536;45.488;12.238;2023-04-24T01:49:10;17.70;88.30
38788;DHT22;24536;45.488;12.238;2023-04-24T01:51:36;17.60;88.30
38788;DHT22;24536;45.488;12.238;2023-04-24T01:54:02;17.60;88.30
38788;DHT22;24536;45.488;12.238;2023-04-24T01:56:33;17.60;88.40
38788;DHT22;24536;45.488;12.238;2023-04-24T01:59:00;17.60;88.50
38788;DHT22;24536;45.488;12.238;2023-04-24T02:01:27;17.60;88.60
38788;DHT22;24536;45.488;12.238;2023-04-24T02:03:58;17.60;88.60
38788;DHT22;24536;45.488;12.238;2023-04-24T02:06:23;17.60;88.70
38788;DHT22;24536;45.488;12.238;2023-04-24T02:08:49;17.60;88.60
38788;DHT22;24536;45.488;12.238;2023-04-24T02:11:15;17.60;88.60
38788;DHT22;24536;45.488;12.238;2023-04-24T02:13:40;17.60;88.80
38788;DHT22;24536;45.488;12.238;2023-04-24T02:16:06;17.60;88.70
38788;DHT22;24536;45.488;12.238;2023-04-24T02:18:32;17.60;88.80
38788;DHT22;24536;45.488;12.238;2023-04-24T02:20:57;17.60;88.80
38788;DHT22;24536;45.488;12.238;2023-04-24T02:23:23;17.60;88.80
38788;DHT22;24536;45.488;12.238;2023-04-24T02:25:49;17.60;88.90
38788;DHT22;24536;45.488;12.238;2023-04-24T02:28:14;17.60;88.80
38788;DHT22;24536;45.488;12.238;2023-04-24T02:30:40;17.60;88.80
38788;DHT22;24536;45.488;12.238;2023-04-24T02:33:06;17.60;88.90
38788;DHT22;24536;45.488;12.238;2023-04-24T02:35:31;17.60;88.90
38788;DHT22;24536;45.488;12.238;2023-04-24T02:37:57;17.60;89.00
38788;DHT22;24536;45.488;12.238;2023-04-24T02:40:22;17.60;88.90
38788;DHT22;24536;45.488;12.238;2023-04-24T02:42:48;17.60;88.80
38788;DHT22;24536;45.488;12.238;2023-04-24T02:45:14;17.60;88.70
38788;DHT22;24536;45.488;12.238;2023-04-24T02:47:39;17.60;88.80
38788;DHT22;24536;45.488;12.238;2023-04-24T02:50:06;17.60;88.80
38788;DHT22;24536;45.488;12.238;2023-04-24T02:52:32;17.60;88.80
38788;DHT22;24536;45.488;12.238;2023-04-24T02:54:57;17.60;88.70
38788;DHT22;24536;45.488;12.238;2023-04-24T02:57:23;17.60;88.60
38788;DHT22;24536;45.488;12.238;2023-04-24T02:59:48;17.60;88.60
38788;DHT22;24536;45.488;12.238;2023-04-24T03:02:14;17.60;88.60
38788;DHT22;24536;45.488;12.238;2023-04-24T03:04:40;17.60;88.60
38788;DHT22;24536;45.488;12.238;2023-04-24T03:07:08;17.60;88.70
38788;DHT22;24536;45.488;12.238;2023-04-24T03:09:34;17.60;88.80
38788;DHT22;24536;45.488;12.238;2023-04-24T03:11:59;17.50;88.80
38788;DHT22;24536;45.488;12.238;2023-04-24T03:14:25;17.60;88.90
38788;DHT22;24536;45.488;12.238;2023-04-24T03:16:51;17.50;88.90
38788;DHT22;24536;45.488;12.238;2023-04-24T03:19:17;17.50;89.00
38788;DHT22;24536;45.488;12.238;2023-04-24T03:21:42;17.50;89.00
38788;DHT22;24536;45.488;12.238;2023-04-24T03:24:08;17.50;89.10
38788;DHT22;24536;45.488;12.238;2023-04-24T03:26:35;17.40;89.10
38788;DHT22;24536;45.488;12.238;2023-04-24T03:29:01;17.40;89.10
38788;DHT22;24536;45.488;12.238;2023-04-24T03:31:27;17.50;89.30
38788;DHT22;24536;45.488;12.238;2023-04-24T03:33:52;17.50;89.50
38788;DHT22;24536;45.488;12.238;2023-04-24T03:36:18;17.50;89.50
38788;DHT22;24536;45.488;12.238;2023-04-24T03:38:44;17.50;89.50
38788;DHT22;24536;45.488;12.238;2023-04-24T03:41:11;17.50;89.50
38788;DHT22;24536;45.488;12.238;2023-04-24T03:43:37;17.50;89.50
38788;DHT22;24536;45.488;12.238;2023-04-24T03:46:03;17.50;89.60
38788;DHT22;24536;45.488;12.238;2023-04-24T03:48:29;17.50;89.70
38788;DHT22;24536;45.488;12.238;2023-04-24T03:50:55;17.50;89.80
38788;DHT22;24536;45.488;12.238;2023-04-24T03:53:21;17.50;89.80
38788;DHT22;24536;45.488;12.238;2023-04-24T03:55:47;17.50;89.90
38788;DHT22;24536;45.488;12.238;2023-04-24T03:58:19;17.50;89.90
38788;DHT22;24536;45.488;12.238;2023-04-24T04:00:44;17.40;90.00
38788;DHT22;24536;45.488;12.238;2023-04-24T04:03:13;17.40;89.90
38788;DHT22;24536;45.488;12.238;2023-04-24T04:05:39;17.40;90.10
38788;DHT22;24536;45.488;12.238;2023-04-24T04:08:05;17.30;90.20
38788;DHT22;24536;45.488;12.238;2023-04-24T04:10:31;17.30;90.20
38788;DHT22;24536;45.488;12.238;2023-04-24T04:12:57;17.30;90.20
38788;DHT22;24536;45.488;12.238;2023-04-24T04:15:22;17.30;90.30
38788;DHT22;24536;45.488;12.238;2023-04-24T04:17:49;17.20;90.20
38788;DHT22;24536;45.488;12.238;2023-04-24T04:20:15;17.20;90.30
38788;DHT22;24536;45.488;12.238;2023-04-24T04:22:40;17.20;90.40
38788;DHT22;24536;45.488;12.238;2023-04-24T04:25:06;17.20;90.50
38788;DHT22;24536;45.488;12.238;2023-04-24T04:27:34;17.20;90.80
38788;DHT22;24536;45.488;12.238;2023-04-24T04:30:03;17.20;90.90
38788;DHT22;24536;45.488;12.238;2023-04-24T04:32:34;17.10;91.10
38788;DHT22;24536;45.488;12.238;2023-04-24T04:35:03;17.00;91.30
38788;DHT22;24536;45.488;12.238;2023-04-24T04:37:34;17.00;91.30
38788;DHT22;24536;45.488;12.238;2023-04-24T04:40:00;17.00;91.50
38788;DHT22;24536;45.488;12.238;2023-04-24T04:42:26;17.00;91.60
38788;DHT22;24536;45.488;12.238;2023-04-24T04:44:53;17.00;91.80
38788;DHT22;24536;45.488;12.238;2023-04-24T04:47:20;17.00;91.90
38788;DHT22;24536;45.488;12.238;2023-04-24T04:49:48;17.00;92.20
38788;DHT22;24536;45.488;12.238;2023-04-24T04:52:13;16.90;92.20
38788;DHT22;24536;45.488;12.238;2023-04-24T04:54:42;17.00;92.40
38788;DHT22;24536;45.488;12.238;2023-04-24T04:57:07;16.90;92.50
38788;DHT22;24536;45.488;12.238;2023-04-24T04:59:33;17.00;92.60
38788;DHT22;24536;45.488;12.238;2023-04-24T05:01:59;17.00;92.60
38788;DHT22;24536;45.488;12.238;2023-04-24T05:04:25;17.00;92.80
38788;DHT22;24536;45.488;12.238;2023-04-24T05:06:50;17.10;92.90
38788;DHT22;24536;45.488;12.238;2023-04-24T05:09:16;17.10;92.90
38788;DHT22;24536;45.488;12.238;2023-04-24T05:11:42;17.10;93.00
38788;DHT22;24536;45.488;12.238;2023-04-24T05:14:07;17.10;93.00
38788;DHT22;24536;45.488;12.238;2023-04-24T05:16:33;17.10;93.00
38788;DHT22;24536;45.488;12.238;2023-04-24T05:18:59;17.10;93.10
38788;DHT22;24536;45.488;12.238;2023-04-24T05:21:25;17.10;93.40
38788;DHT22;24536;45.488;12.238;2023-04-24T05:23:52;17.10;93.20
38788;DHT22;24536;45.488;12.238;2023-04-24T05:26:17;17.10;93.30
38788;DHT22;24536;45.488;12.238;2023-04-24T05:28:43;17.10;93.30
38788;DHT22;24536;45.488;12.238;2023-04-24T05:31:08;17.10;93.40
38788;DHT22;24536;45.488;12.238;2023-04-24T05:33:34;17.00;93.30
38788;DHT22;24536;45.488;12.238;2023-04-24T05:36:00;17.10;93.50
38788;DHT22;24536;45.488;12.238;2023-04-24T05:38:26;17.10;93.60
38788;DHT22;24536;45.488;12.238;2023-04-24T05:40:52;17.20;93.70
38788;DHT22;24536;45.488;12.238;2023-04-24T05:43:17;17.20;93.70
38788;DHT22;24536;45.488;12.238;2023-04-24T05:45:43;17.20;93.90
38788;DHT22;24536;45.488;12.238;2023-04-24T05:48:08;17.30;93.70
38788;DHT22;24536;45.488;12.238;2023-04-24T05:50:34;17.40;93.60
38788;DHT22;24536;45.488;12.238;2023-04-24T05:53:00;17.40;93.50
38788;DHT22;24536;45.488;12.238;2023-04-24T05:55:27;17.40;93.60
38788;DHT22;24536;45.488;12.238;2023-04-24T05:57:55;17.50;93.50
38788;DHT22;24536;45.488;12.238;2023-04-24T06:00:21;17.50;93.40
38788;DHT22;24536;45.488;12.238;2023-04-24T06:02:47;17.50;93.40
38788;DHT22;24536;45.488;12.238;2023-04-24T06:05:13;17.50;93.30
38788;DHT22;24536;45.488;12.238;2023-04-24T06:07:40;17.50;93.40
38788;DHT22;24536;45.488;12.238;2023-04-24T06:10:06;17.40;93.50
38788;DHT22;24536;45.488;12.238;2023-04-24T06:12:31;17.40;93.50
38788;DHT22;24536;45.488;12.238;2023-04-24T06:14:57;17.40;93.50
38788;DHT22;24536;45.488;12.238;2023-04-24T06:17:23;17.40;93.60
38788;DHT22;24536;45.488;12.238;2023-04-24T06:19:48;17.50;93.70
38788;DHT22;24536;45.488;12.238;2023-04-24T06:22:14;17.50;93.60
38788;DHT22;24536;45.488;12.238;2023-04-24T06:24:41;17.50;93.60
38788;DHT22;24536;45.488;12.238;2023-04-24T06:27:08;17.50;93.50
38788;DHT22;24536;45.488;12.238;2023-04-24T06:29:36;17.50;93.50
38788;DHT22;24536;45.488;12.238;2023-04-24T06:32:01;17.50;93.60
38788;DHT22;24536;45.488;12.238;2023-04-24T06:34:27;17.50;93.50
38788;DHT22;24536;45.488;12.238;2023-04-24T06:36:54;17.50;93.50
38788;DHT22;24536;45.488;12.238;2023-04-24T06:39:20;17.60;93.50
38788;DHT22;24536;45.488;12.238;2023-04-24T06:41:46;17.60;93.50
38788;DHT22;24536;45.488;12.238;2023-04-24T06:44:11;17.60;93.40
38788;DHT22;24536;45.488;12.238;2023-04-24T06:46:37;17.70;93.30
38788;DHT22;24536;45.488;12.238;2023-04-24T06:49:03;17.70;93.40
38788;DHT22;24536;45.488;12.238;2023-04-24T06:51:28;17.70;93.40
38788;DHT22;24536;45.488;12.238;2023-04-24T06:53:54;17.70;93.30
38788;DHT22;24536;45.488;12.238;2023-04-24T06:56:21;17.70;93.20
38788;DHT22;24536;45.488;12.238;2023-04-24T06:58:48;17.60;93.40
38788;DHT22;24536;45.488;12.238;2023-04-24T07:01:13;17.70;93.30
38788;DHT22;24536;45.488;12.238;2023-04-24T07:03:39;17.60;93.30
38788;DHT22;24536;45.488;12.238;2023-04-24T07:06:05;17.70;93.20
38788;DHT22;24536;45.488;12.238;2023-04-24T07:08:31;17.70;92.90
38788;DHT22;24536;45.488;12.238;2023-04-24T07:10:59;17.70;92.80
38788;DHT22;24536;45.488;12.238;2023-04-24T07:13:25;17.70;92.80
38788;DHT22;24536;45.488;12.238;2023-04-24T07:15:50;17.70;92.70
38788;DHT22;24536;45.488;12.238;2023-04-24T07:18:18;17.70;92.60
38788;DHT22;24536;45.488;12.238;2023-04-24T07:20:44;17.70;92.50
38788;DHT22;24536;45.488;12.238;2023-04-24T07:23:10;17.70;92.40
38788;DHT22;24536;45.488;12.238;2023-04-24T07:25:36;17.60;92.40
38788;DHT22;24536;45.488;12.238;2023-04-24T07:28:01;17.60;92.40
38788;DHT22;24536;45.488;12.238;2023-04-24T07:30:27;17.60;92.40
38788;DHT22;24536;45.488;12.238;2023-04-24T07:32:58;17.60;92.40
38788;DHT22;24536;45.488;12.238;2023-04-24T07:35:25;17.60;92.40
38788;DHT22;24536;45.488;12.238;2023-04-24T07:37:54;17.60;92.50
38788;DHT22;24536;45.488;12.238;2023-04-24T07:40:21;17.50;92.60
38788;DHT22;24536;45.488;12.238;2023-04-24T07:42:47;17.50;92.90
38788;DHT22;24536;45.488;12.238;2023-04-24T07:45:16;17.50;93.00
38788;DHT22;24536;45.488;12.238;2023-04-24T07:47:42;17.60;93.00
38788;DHT22;24536;45.488;12.238;2023-04-24T07:50:11;17.50;93.00
38788;DHT22;24536;45.488;12.238;2023-04-24T07:52:38;17.50;93.00
38788;DHT22;24536;45.488;12.238;2023-04-24T07:55:04;17.50;93.10
38788;DHT22;24536;45.488;12.238;2023-04-24T07:57:30;17.50;93.00
38788;DHT22;24536;45.488;12.238;2023-04-24T07:59:56;17.60;92.80
38788;DHT22;24536;45.488;12.238;2023-04-24T08:02:21;17.50;92.80
38788;DHT22;24536;45.488;12.238;2023-04-24T08:04:52;17.60;92.60
38788;DHT22;24536;45.488;12.238;2023-04-24T08:07:19;17.60;92.60
38788;DHT22;24536;45.488;12.238;2023-04-24T08:09:45;17.50;92.40
38788;DHT22;24536;45.488;12.238;2023-04-24T08:12:11;17.50;92.20
38788;DHT22;24536;45.488;12.238;2023-04-24T08:14:36;17.50;92.30
38788;DHT22;24536;45.488;12.238;2023-04-24T08:17:02;17.50;92.40
38788;DHT22;24536;45.488;12.238;2023-04-24T08:19:28;17.50;92.40
38788;DHT22;24536;45.488;12.238;2023-04-24T08:21:54;17.60;92.40
38788;DHT22;24536;45.488;12.238;2023-04-24T08:24:20;17.60;92.20
38788;DHT22;24536;45.488;12.238;2023-04-24T08:26:46;17.60;91.90
38788;DHT22;24536;45.488;12.238;2023-04-24T08:29:14;17.70;92.10
38788;DHT22;24536;45.488;12.238;2023-04-24T08:31:40;17.70;92.00
38788;DHT22;24536;45.488;12.238;2023-04-24T08:34:06;17.60;92.00
38788;DHT22;24536;45.488;12.238;2023-04-24T08:36:32;17.60;92.10
38788;DHT22;24536;45.488;12.238;2023-04-24T08:38:57;17.60;92.10
38788;DHT22;24536;45.488;12.238;2023-04-24T08:41:23;17.60;92.00
38788;DHT22;24536;45.488;12.238;2023-04-24T08:43:51;17.50;92.20
38788;DHT22;24536;45.488;12.238;2023-04-24T08:46:18;17.50;92.50
38788;DHT22;24536;45.488;12.238;2023-04-24T08:48:45;17.40;92.50
38788;DHT22;24536;45.488;12.238;2023-04-24T08:51:11;17.30;92.60
38788;DHT22;24536;45.488;12.238;2023-04-24T08:53:38;17.20;92.80
38788;DHT22;24536;45.488;12.238;2023-04-24T08:56:05;17.20;93.00
38788;DHT22;24536;45.488;12.238;2023-04-24T08:58:31;17.10;92.90
38788;DHT22;24536;45.488;12.238;2023-04-24T09:00:58;17.10;92.80
38788;DHT22;24536;45.488;12.238;2023-04-24T09:03:26;17.10;93.00
38788;DHT22;24536;45.488;12.238;2023-04-24T09:05:52;17.10;93.00
38788;DHT22;24536;45.488;12.238;2023-04-24T09:08:26;17.20;93.00
38788;DHT22;24536;45.488;12.238;2023-04-24T09:10:53;17.20;93.00
38788;DHT22;24536;45.488;12.238;2023-04-24T09:13:20;17.20;93.00
38788;DHT22;24536;45.488;12.238;2023-04-24T09:15:46;17.30;93.10
38788;DHT22;24536;45.488;12.238;2023-04-24T09:18:12;17.30;93.10
38788;DHT22;24536;45.488;12.238;2023-04-24T09:21:19;17.40;93.10
38788;DHT22;24536;45.488;12.238;2023-04-24T09:23:42;17.50;93.00
38788;DHT22;24536;45.488;12.238;2023-04-24T09:26:09;17.60;93.00
38788;DHT22;24536;45.488;12.238;2023-04-24T09:28:38;17.80;93.20
38788;DHT22;24536;45.488;12.238;2023-04-24T09:31:18;18.00;93.10
38788;DHT22;24536;45.488;12.238;2023-04-24T09:33:59;18.10;92.70
38788;DHT22;24536;45.488;12.238;2023-04-24T09:36:44;18.30;92.50
38788;DHT22;24536;45.488;12.238;2023-04-24T09:39:14;18.40;92.10
38788;DHT22;24536;45.488;12.238;2023-04-24T09:41:49;18.50;92.00
38788;DHT22;24536;45.488;12.238;2023-04-24T09:44:17;18.70;91.80
38788;DHT22;24536;45.488;12.238;2023-04-24T09:46:44;18.80;91.80
38788;DHT22;24536;45.488;12.238;2023-04-24T09:49:14;18.80;90.70
38788;DHT22;24536;45.488;12.238;2023-04-24T09:51:41;18.70;90.90
38788;DHT22;24536;45.488;12.238;2023-04-24T09:54:18;18.80;90.70
38788;DHT22;24536;45.488;12.238;2023-04-24T09:56:46;18.80;90.50
38788;DHT22;24536;45.488;12.238;2023-04-24T09:59:14;18.90;90.10
38788;DHT22;24536;45.488;12.238;2023-04-24T10:01:40;19.00;90.10
38788;DHT22;24536;45.488;12.238;2023-04-24T10:06:44;19.00;90.00
38788;DHT22;24536;45.488;12.238;2023-04-24T10:09:10;19.00;90.00
38788;DHT22;24536;45.488;12.238;2023-04-24T10:11:44;19.00;89.00
38788;DHT22;24536;45.488;12.238;2023-04-24T10:14:17;18.90;89.00
38788;DHT22;24536;45.488;12.238;2023-04-24T10:16:44;18.80;88.60
38788;DHT22;24536;45.488;12.238;2023-04-24T10:19:12;18.70;88.70
38788;DHT22;24536;45.488;12.238;2023-04-24T10:21:40;18.70;88.00
38788;DHT22;24536;45.488;12.238;2023-04-24T10:24:12;18.60;88.00
38788;DHT22;24536;45.488;12.238;2023-04-24T10:26:38;18.50;87.70
38788;DHT22;24536;45.488;12.238;2023-04-24T10:29:06;18.40;88.40
38788;DHT22;24536;45.488;12.238;2023-04-24T10:31:36;18.40;88.30
38788;DHT22;24536;45.488;12.238;2023-04-24T10:34:04;18.30;88.60
38788;DHT22;24536;45.488;12.238;2023-04-24T10:36:31;18.30;89.10
38788;DHT22;24536;45.488;12.238;2023-04-24T10:39:00;18.20;88.90
38788;DHT22;24536;45.488;12.238;2023-04-24T10:41:26;18.30;89.70
38788;DHT22;24536;45.488;12.238;2023-04-24T10:44:12;18.30;89.30
38788;DHT22;24536;45.488;12.238;2023-04-24T10:46:40;18.30;89.10
38788;DHT22;24536;45.488;12.238;2023-04-24T10:49:08;18.30;89.10
38788;DHT22;24536;45.488;12.238;2023-04-24T10:54:29;18.30;88.70
38788;DHT22;24536;45.488;12.238;2023-04-24T10:59:47;18.20;87.70
38788;DHT22;24536;45.488;12.238;2023-04-24T11:02:16;18.10;88.00
38788;DHT22;24536;45.488;12.238;2023-04-24T11:04:43;18.10;88.10
38788;DHT22;24536;45.488;12.238;2023-04-24T11:07:10;18.10;87.90
38788;DHT22;24536;45.488;12.238;2023-04-24T11:09:37;18.20;87.30
38788;DHT22;24536;45.488;12.238;2023-04-24T11:12:12;18.30;86.30
38788;DHT22;24536;45.488;12.238;2023-04-24T11:15:02;18.40;86.40
38788;DHT22;24536;45.488;12.238;2023-04-24T11:17:36;18.40;82.70
38788;DHT22;24536;45.488;12.238;2023-04-24T11:20:15;18.50;82.70
38788;DHT22;24536;45.488;12.238;2023-04-24T11:22:42;18.50;82.60
38788;DHT22;24536;45.488;12.238;2023-04-24T11:25:08;18.60;81.60
38788;DHT22;24536;45.488;12.238;2023-04-24T11:27:42;18.50;82.60
38788;DHT22;24536;45.488;12.238;2023-04-24T11:30:10;18.60;82.70
38788;DHT22;24536;45.488;12.238;2023-04-24T11:32:40;18.70;79.20
38788;DHT22;24536;45.488;12.238;2023-04-24T11:37:35;18.80;79.80
38788;DHT22;24536;45.488;12.238;2023-04-24T11:40:01;19.10;79.70
38788;DHT22;24536;45.488;12.238;2023-04-24T11:42:28;19.40;79.00
38788;DHT22;24536;45.488;12.238;2023-04-24T11:44:54;19.60;78.50
38788;DHT22;24536;45.488;12.238;2023-04-24T11:47:30;19.90;78.90
38788;DHT22;24536;45.488;12.238;2023-04-24T11:49:55;20.20;77.40
38788;DHT22;24536;45.488;12.238;2023-04-24T11:52:21;20.30;75.50
38788;DHT22;24536;45.488;12.238;2023-04-24T11:54:48;20.30;75.10
38788;DHT22;24536;45.488;12.238;2023-04-24T11:57:16;20.40;76.10
38788;DHT22;24536;45.488;12.238;2023-04-24T11:59:41;20.50;75.70
38788;DHT22;24536;45.488;12.238;2023-04-24T12:02:07;20.60;75.00
38788;DHT22;24536;45.488;12.238;2023-04-24T12:04:40;20.60;74.40
38788;DHT22;24536;45.488;12.238;2023-04-24T12:07:07;20.70;73.50
38788;DHT22;24536;45.488;12.238;2023-04-24T12:09:47;20.70;73.50
38788;DHT22;24536;45.488;12.238;2023-04-24T12:12:18;20.80;73.60
38788;DHT22;24536;45.488;12.238;2023-04-24T12:14:53;20.90;72.10
38788;DHT22;24536;45.488;12.238;2023-04-24T12:17:41;20.90;70.20
38788;DHT22;24536;45.488;12.238;2023-04-24T12:20:08;20.80;70.60
38788;DHT22;24536;45.488;12.238;2023-04-24T12:22:54;20.70;71.50
38788;DHT22;24536;45.488;12.238;2023-04-24T12:25:25;20.80;71.40
38788;DHT22;24536;45.488;12.238;2023-04-24T12:30:35;20.70;71.30
38788;DHT22;24536;45.488;12.238;2023-04-24T12:33:03;20.60;71.10
38788;DHT22;24536;45.488;12.238;2023-04-24T12:35:31;20.50;71.70
38788;DHT22;24536;45.488;12.238;2023-04-24T12:38:10;20.40;71.40
38788;DHT22;24536;45.488;12.238;2023-04-24T12:40:36;20.20;72.10
38788;DHT22;24536;45.488;12.238;2023-04-24T12:43:02;20.00;71.00
38788;DHT22;24536;45.488;12.238;2023-04-24T12:45:37;20.00;72.20
38788;DHT22;24536;45.488;12.238;2023-04-24T12:48:03;19.90;73.00
38788;DHT22;24536;45.488;12.238;2023-04-24T12:50:29;19.90;72.60
38788;DHT22;24536;45.488;12.238;2023-04-24T12:52:54;19.80;71.20
38788;DHT22;24536;45.488;12.238;2023-04-24T12:55:20;19.70;71.10
38788;DHT22;24536;45.488;12.238;2023-04-24T12:57:46;19.70;71.60
38788;DHT22;24536;45.488;12.238;2023-04-24T13:00:12;19.70;72.50
38788;DHT22;24536;45.488;12.238;2023-04-24T13:02:38;19.70;71.90
38788;DHT22;24536;45.488;12.238;2023-04-24T13:05:04;19.70;70.70
38788;DHT22;24536;45.488;12.238;2023-04-24T13:07:33;19.70;71.30
38788;DHT22;24536;45.488;12.238;2023-04-24T13:09:59;19.80;72.10
38788;DHT22;24536;45.488;12.238;2023-04-24T13:12:25;19.80;72.20
38788;DHT22;24536;45.488;12.238;2023-04-24T13:14:52;19.90;70.60
38788;DHT22;24536;45.488;12.238;2023-04-24T13:17:18;19.90;71.40
38788;DHT22;24536;45.488;12.238;2023-04-24T13:19:44;19.90;71.10
38788;DHT22;24536;45.488;12.238;2023-04-24T13:22:11;20.00;71.10
38788;DHT22;24536;45.488;12.238;2023-04-24T13:24:38;20.00;70.50
38788;DHT22;24536;45.488;12.238;2023-04-24T13:27:06;20.00;68.70
38788;DHT22;24536;45.488;12.238;2023-04-24T13:29:32;20.00;69.90
38788;DHT22;24536;45.488;12.238;2023-04-24T13:31:57;20.00;69.90
38788;DHT22;24536;45.488;12.238;2023-04-24T13:34:24;20.10;70.10
38788;DHT22;24536;45.488;12.238;2023-04-24T13:36:54;20.30;69.30
38788;DHT22;24536;45.488;12.238;2023-04-24T13:39:20;20.40;70.30
38788;DHT22;24536;45.488;12.238;2023-04-24T13:41:46;20.50;69.50
38788;DHT22;24536;45.488;12.238;2023-04-24T13:44:17;20.60;69.30
38788;DHT22;24536;45.488;12.238;2023-04-24T13:46:44;20.70;67.90
38788;DHT22;24536;45.488;12.238;2023-04-24T13:49:11;20.90;68.80
38788;DHT22;24536;45.488;12.238;2023-04-24T13:51:37;21.00;67.50
38788;DHT22;24536;45.488;12.238;2023-04-24T13:54:03;21.10;67.60
38788;DHT22;24536;45.488;12.238;2023-04-24T13:56:28;21.20;65.60
38788;DHT22;24536;45.488;12.238;2023-04-24T13:58:54;21.30;66.30
38788;DHT22;24536;45.488;12.238;2023-04-24T14:01:20;21.30;66.50
38788;DHT22;24536;45.488;12.238;2023-04-24T14:03:50;21.30;65.90
38788;DHT22;24536;45.488;12.238;2023-04-24T14:06:15;21.30;65.00
38788;DHT22;24536;45.488;12.238;2023-04-24T14:08:41;21.30;66.10
38788;DHT22;24536;45.488;12.238;2023-04-24T14:11:07;21.30;66.10
38788;DHT22;24536;45.488;12.238;2023-04-24T14:13:32;21.20;65.00
38788;DHT22;24536;45.488;12.238;2023-04-24T14:15:58;21.20;65.90
38788;DHT22;24536;45.488;12.238;2023-04-24T14:18:24;21.10;66.00
38788;DHT22;24536;45.488;12.238;2023-04-24T14:20:50;21.00;66.00
38788;DHT22;24536;45.488;12.238;2023-04-24T14:23:15;21.00;65.40
38788;DHT22;24536;45.488;12.238;2023-04-24T14:25:41;21.00;65.50
38788;DHT22;24536;45.488;12.238;2023-04-24T14:28:07;21.00;66.20
38788;DHT22;24536;45.488;12.238;2023-04-24T14:30:33;20.90;64.30
38788;DHT22;24536;45.488;12.238;2023-04-24T14:32:58;20.90;64.00
38788;DHT22;24536;45.488;12.238;2023-04-24T14:35:24;20.80;64.80
38788;DHT22;24536;45.488;12.238;2023-04-24T14:37:50;20.70;64.50
38788;DHT22;24536;45.488;12.238;2023-04-24T14:40:16;20.70;64.80
38788;DHT22;24536;45.488;12.238;2023-04-24T14:42:42;20.80;64.80
38788;DHT22;24536;45.488;12.238;2023-04-24T14:45:08;20.80;64.00
38788;DHT22;24536;45.488;12.238;2023-04-24T14:47:33;20.70;64.80
38788;DHT22;24536;45.488;12.238;2023-04-24T14:49:59;20.70;65.30
38788;DHT22;24536;45.488;12.238;2023-04-24T14:52:25;20.60;65.70
38788;DHT22;24536;45.488;12.238;2023-04-24T14:54:50;20.60;66.10
38788;DHT22;24536;45.488;12.238;2023-04-24T14:57:16;20.60;66.50
38788;DHT22;24536;45.488;12.238;2023-04-24T14:59:42;20.60;66.80
38788;DHT22;24536;45.488;12.238;2023-04-24T15:02:07;20.50;67.50
38788;DHT22;24536;45.488;12.238;2023-04-24T15:04:33;20.40;68.10
38788;DHT22;24536;45.488;12.238;2023-04-24T15:06:59;20.40;68.50
38788;DHT22;24536;45.488;12.238;2023-04-24T15:09:25;20.40;69.10
38788;DHT22;24536;45.488;12.238;2023-04-24T15:11:51;20.30;69.10
38788;DHT22;24536;45.488;12.238;2023-04-24T15:14:18;20.30;69.00
38788;DHT22;24536;45.488;12.238;2023-04-24T15:16:44;20.20;69.10
38788;DHT22;24536;45.488;12.238;2023-04-24T15:19:10;20.20;70.00
38788;DHT22;24536;45.488;12.238;2023-04-24T15:21:37;20.20;69.90
38788;DHT22;24536;45.488;12.238;2023-04-24T15:24:04;20.10;69.30
38788;DHT22;24536;45.488;12.238;2023-04-24T15:26:30;20.00;69.30
38788;DHT22;24536;45.488;12.238;2023-04-24T15:28:56;20.00;69.80